createdAt,value
2022-12-25T00:01:28.339Z,22.72
2022-12-25T00:03:56.610Z,22.68
2022-12-25T00:06:23.250Z,22.66
2022-12-25T00:08:49.730Z,22.51
2022-12-25T00:11:17.612Z,22.36
2022-12-25T00:13:44.313Z,22.35
2022-12-25T00:16:22.356Z,22.33
2022-12-25T00:18:48.947Z,22.31
2022-12-25T00:21:15.597Z,22.30
2022-12-25T00:23:42.222Z,22.27
2022-12-25T00:26:13.611Z,22.25
2022-12-25T00:28:40.108Z,22.24
2022-12-25T00:31:11.455Z,22.21
2022-12-25T00:33:39.030Z,22.19
2022-12-25T00:36:06.327Z,22.17
2022-12-25T00:38:33.385Z,22.18
2022-12-25T00:40:59.865Z,22.20
2022-12-25T00:43:26.328Z,22.17
2022-12-25T00:45:59.839Z,22.17
2022-12-25T00:48:26.487Z,22.17
2022-12-25T00:50:54.199Z,22.15
2022-12-25T00:53:20.672Z,22.13
2022-12-25T00:55:54.191Z,22.12
2022-12-25T00:58:20.695Z,22.12
2022-12-25T01:00:47.712Z,22.11
2022-12-25T01:03:14.320Z,22.08
2022-12-25T01:05:40.793Z,22.07
2022-12-25T01:08:07.319Z,22.06
2022-12-25T01:10:33.768Z,22.02
2022-12-25T01:13:00.251Z,22.01
2022-12-25T01:15:26.716Z,21.99
2022-12-25T01:17:53.184Z,21.95
2022-12-25T01:20:19.659Z,21.94
2022-12-25T01:22:46.104Z,21.93
2022-12-25T01:25:12.647Z,21.93
2022-12-25T01:27:40.779Z,21.92
2022-12-25T01:30:07.650Z,21.91
2022-12-25T01:32:34.148Z,21.92
2022-12-25T01:35:00.663Z,21.91
2022-12-25T01:37:27.118Z,21.92
2022-12-25T01:39:53.588Z,21.91
2022-12-25T01:42:21.298Z,21.90
2022-12-25T01:44:47.593Z,21.88
2022-12-25T01:47:14.082Z,21.88
2022-12-25T01:49:42.476Z,21.86
2022-12-25T01:52:17.484Z,21.86
2022-12-25T01:54:47.872Z,21.85
2022-12-25T01:57:19.493Z,21.83
2022-12-25T01:59:46.109Z,21.84
2022-12-25T02:02:12.632Z,21.84
2022-12-25T02:04:48.510Z,21.82
2022-12-25T02:07:19.341Z,21.81
2022-12-25T02:09:45.817Z,21.80
2022-12-25T02:12:17.870Z,21.78
2022-12-25T02:14:44.323Z,21.77
2022-12-25T02:17:23.503Z,21.77
2022-12-25T02:20:11.208Z,21.76
2022-12-25T02:23:04.529Z,21.74
2022-12-25T02:25:30.818Z,21.74
2022-12-25T02:28:30.864Z,21.74
2022-12-25T02:31:07.049Z,21.73
2022-12-25T02:34:01.582Z,21.71
2022-12-25T02:36:32.747Z,21.68
2022-12-25T02:39:18.431Z,21.65
2022-12-25T02:41:45.130Z,21.63
2022-12-25T02:44:33.917Z,21.63
2022-12-25T02:47:19.443Z,21.63
2022-12-25T02:50:04.483Z,21.61
2022-12-25T02:52:49.590Z,21.58
2022-12-25T02:55:39.672Z,21.57
2022-12-25T02:58:41.532Z,21.54
2022-12-25T03:01:29.749Z,21.52
2022-12-25T03:04:16.033Z,21.51
2022-12-25T03:06:42.840Z,21.52
2022-12-25T03:09:31.005Z,21.47
2022-12-25T03:12:02.401Z,21.50
2022-12-25T03:14:47.489Z,21.51
2022-12-25T03:17:13.987Z,21.50
2022-12-25T03:19:59.031Z,21.51
2022-12-25T03:22:48.501Z,21.51
2022-12-25T03:25:34.178Z,21.51
2022-12-25T03:28:00.751Z,21.50
2022-12-25T03:31:11.431Z,21.48
2022-12-25T03:34:34.051Z,21.46
2022-12-25T03:37:28.322Z,21.44
2022-12-25T03:39:57.691Z,21.44
2022-12-25T03:42:54.347Z,21.41
2022-12-25T03:45:55.091Z,21.39
2022-12-25T03:48:40.064Z,21.37
2022-12-25T03:51:28.632Z,21.37
2022-12-25T03:54:15.420Z,21.33
2022-12-25T03:57:00.478Z,21.35
2022-12-25T03:59:45.859Z,21.34
2022-12-25T04:02:30.789Z,21.34
2022-12-25T04:05:16.038Z,21.33
2022-12-25T04:08:01.031Z,21.32
2022-12-25T04:10:45.784Z,21.29
2022-12-25T04:13:30.593Z,21.28
2022-12-25T04:16:16.330Z,21.29
2022-12-25T04:19:01.607Z,21.27
2022-12-25T04:21:46.468Z,21.27
2022-12-25T04:24:31.969Z,21.27
2022-12-25T04:27:16.819Z,21.25
2022-12-25T04:30:01.459Z,21.23
2022-12-25T04:32:46.286Z,21.22
2022-12-25T04:35:31.484Z,21.21
2022-12-25T04:37:57.932Z,21.17
2022-12-25T04:40:24.422Z,21.15
2022-12-25T04:42:51.487Z,21.15
2022-12-25T04:45:17.990Z,21.14
2022-12-25T04:47:44.464Z,21.13
2022-12-25T04:50:11.044Z,21.11
2022-12-25T04:52:38.307Z,21.09
2022-12-25T04:55:05.367Z,21.08
2022-12-25T04:57:32.475Z,21.06
2022-12-25T04:59:58.941Z,21.07
2022-12-25T05:02:25.848Z,21.04
2022-12-25T05:04:52.528Z,21.03
2022-12-25T05:07:18.990Z,21.04
2022-12-25T05:09:45.466Z,21.03
2022-12-25T05:12:11.919Z,21.04
2022-12-25T05:14:39.927Z,21.03
2022-12-25T05:17:07.875Z,21.02
2022-12-25T05:19:34.673Z,21.00
2022-12-25T05:22:01.131Z,20.98
2022-12-25T05:24:27.852Z,20.99
2022-12-25T05:26:54.591Z,20.99
2022-12-25T05:29:21.047Z,20.98
2022-12-25T05:31:47.563Z,20.97
2022-12-25T05:34:14.095Z,20.95
2022-12-25T05:36:40.720Z,20.93
2022-12-25T05:39:07.183Z,20.92
2022-12-25T05:41:34.764Z,20.91
2022-12-25T05:44:01.555Z,20.89
2022-12-25T05:46:28.040Z,20.90
2022-12-25T05:48:54.505Z,20.89
2022-12-25T05:51:21.044Z,20.87
2022-12-25T05:53:47.511Z,20.86
2022-12-25T05:56:14.003Z,20.85
2022-12-25T05:58:40.628Z,20.84
2022-12-25T06:01:13.853Z,20.84
2022-12-25T06:03:40.501Z,20.85
2022-12-25T06:06:07.350Z,20.96
2022-12-25T06:08:34.432Z,21.08
2022-12-25T06:11:04.736Z,21.18
2022-12-25T06:13:31.726Z,21.24
2022-12-25T06:15:59.068Z,21.27
2022-12-25T06:18:26.394Z,21.35
2022-12-25T06:20:53.141Z,21.39
2022-12-25T06:23:19.634Z,21.40
2022-12-25T06:25:46.164Z,21.42
2022-12-25T06:28:12.842Z,21.48
2022-12-25T06:30:39.320Z,21.50
2022-12-25T06:33:05.780Z,21.52
2022-12-25T06:35:32.574Z,21.53
2022-12-25T06:37:59.075Z,21.54
2022-12-25T06:40:25.548Z,21.54
2022-12-25T06:42:52.310Z,21.50
2022-12-25T06:45:18.785Z,21.47
2022-12-25T06:47:45.478Z,21.52
2022-12-25T06:50:11.960Z,21.57
2022-12-25T06:52:38.419Z,21.61
2022-12-25T06:55:06.383Z,21.63
2022-12-25T06:57:32.972Z,21.64
2022-12-25T06:59:59.487Z,21.66
2022-12-25T07:02:26.117Z,21.66
2022-12-25T07:04:52.712Z,21.66
2022-12-25T07:07:19.934Z,21.67
2022-12-25T07:09:46.392Z,21.68
2022-12-25T07:12:18.419Z,21.73
2022-12-25T07:14:48.546Z,21.80
2022-12-25T07:17:16.112Z,21.88
2022-12-25T07:19:45.205Z,21.92
2022-12-25T07:22:12.541Z,21.95
2022-12-25T07:24:39.086Z,21.98
2022-12-25T07:27:05.568Z,22.00
2022-12-25T07:29:32.307Z,21.99
2022-12-25T07:31:58.872Z,21.99
2022-12-25T07:34:25.409Z,22.00
2022-12-25T07:36:51.874Z,21.97
2022-12-25T07:39:18.369Z,21.98
2022-12-25T07:41:44.875Z,21.97
2022-12-25T07:44:11.329Z,21.95
2022-12-25T07:46:37.801Z,21.94
2022-12-25T07:49:04.302Z,21.97
2022-12-25T07:51:30.789Z,22.00
2022-12-25T07:53:57.253Z,22.04
2022-12-25T07:56:23.773Z,22.06
2022-12-25T07:58:50.340Z,22.09
2022-12-25T08:01:20.302Z,22.13
2022-12-25T08:03:57.401Z,22.13
2022-12-25T08:06:26.740Z,22.15
2022-12-25T08:08:53.242Z,22.16
2022-12-25T08:11:19.756Z,22.24
2022-12-25T08:13:46.235Z,22.27
2022-12-25T08:16:12.776Z,22.35
2022-12-25T08:18:39.420Z,22.42
2022-12-25T08:21:10.722Z,22.55
2022-12-25T08:23:38.659Z,22.68
2022-12-25T08:26:05.971Z,22.73
2022-12-25T08:28:32.901Z,22.82
2022-12-25T08:30:59.437Z,22.83
2022-12-25T08:33:25.928Z,22.83
2022-12-25T08:35:52.414Z,22.84
2022-12-25T08:38:18.908Z,22.80
2022-12-25T08:40:45.363Z,22.72
2022-12-25T08:43:11.858Z,22.65
2022-12-25T08:45:38.419Z,22.65
2022-12-25T08:48:04.895Z,22.65
2022-12-25T08:50:31.339Z,22.63
2022-12-25T08:52:57.801Z,22.62
2022-12-25T08:55:24.261Z,22.59
2022-12-25T08:57:53.209Z,22.59
2022-12-25T09:00:19.918Z,22.59
2022-12-25T09:02:46.492Z,22.59
2022-12-25T09:05:13.104Z,22.52
2022-12-25T09:07:39.606Z,22.56
2022-12-25T09:10:06.744Z,22.56
2022-12-25T09:12:33.272Z,22.59
2022-12-25T09:14:59.726Z,22.49
2022-12-25T09:17:26.204Z,22.44
2022-12-25T09:19:52.677Z,22.38
2022-12-25T09:22:19.425Z,22.35
2022-12-25T09:24:45.906Z,22.38
2022-12-25T09:27:12.431Z,22.39
2022-12-25T09:29:39.161Z,22.43
2022-12-25T09:32:06.045Z,22.43
2022-12-25T09:34:32.732Z,22.40
2022-12-25T09:36:59.229Z,22.39
2022-12-25T09:39:26.822Z,22.43
2022-12-25T09:41:56.559Z,22.43
2022-12-25T09:44:25.525Z,22.43
2022-12-25T09:47:11.965Z,22.44
2022-12-25T09:49:52.852Z,22.40
2022-12-25T09:52:25.613Z,22.40
2022-12-25T09:55:19.732Z,22.40
2022-12-25T09:57:49.766Z,22.39
2022-12-25T10:00:18.091Z,22.38
2022-12-25T10:03:14.525Z,22.36
2022-12-25T10:06:17.455Z,22.36
2022-12-25T10:09:06.183Z,22.37
2022-12-25T10:11:41.736Z,22.37
2022-12-25T10:14:18.566Z,22.31
2022-12-25T10:17:18.468Z,22.36
2022-12-25T10:19:56.485Z,22.42
2022-12-25T10:22:50.155Z,22.40
2022-12-25T10:25:18.666Z,22.41
2022-12-25T10:27:45.170Z,22.39
2022-12-25T10:30:23.369Z,22.40
2022-12-25T10:32:49.904Z,22.45
2022-12-25T10:35:18.630Z,22.49
2022-12-25T10:37:48.795Z,22.50
2022-12-25T10:40:24.470Z,22.49
2022-12-25T10:42:57.308Z,22.51
2022-12-25T10:45:23.773Z,22.52
2022-12-25T10:47:59.528Z,22.52
2022-12-25T10:50:28.711Z,22.58
2022-12-25T10:53:04.720Z,22.54
2022-12-25T10:55:31.975Z,22.52
2022-12-25T10:57:58.624Z,22.52
2022-12-25T11:00:30.209Z,22.49
2022-12-25T11:02:57.050Z,22.47
2022-12-25T11:05:25.738Z,22.46
2022-12-25T11:07:56.201Z,22.43
2022-12-25T11:10:33.925Z,22.56
2022-12-25T11:13:00.483Z,22.56
2022-12-25T11:15:40.421Z,22.54
2022-12-25T11:18:25.926Z,22.52
2022-12-25T11:21:04.006Z,22.56
2022-12-25T11:23:31.478Z,22.63
2022-12-25T11:26:05.156Z,22.70
2022-12-25T11:28:32.757Z,22.78
2022-12-25T11:31:07.836Z,22.78
2022-12-25T11:33:59.171Z,22.87
2022-12-25T11:36:32.728Z,22.92
2022-12-25T11:39:16.628Z,22.93
2022-12-25T11:41:49.512Z,22.91
2022-12-25T11:44:26.474Z,22.91
2022-12-25T11:46:55.238Z,22.90
2022-12-25T11:49:25.406Z,22.90
2022-12-25T11:51:54.612Z,22.91
2022-12-25T11:54:29.345Z,22.88
2022-12-25T11:57:05.051Z,22.95
2022-12-25T11:59:35.383Z,22.98
2022-12-25T12:02:22.265Z,23.02
2022-12-25T12:04:50.928Z,23.01
2022-12-25T12:07:26.384Z,23.02
2022-12-25T12:10:16.112Z,23.00
2022-12-25T12:13:27.111Z,23.00
2022-12-25T12:15:53.622Z,22.97
2022-12-25T12:18:28.577Z,22.95
2022-12-25T12:21:21.804Z,22.98
2022-12-25T12:24:12.423Z,23.19
2022-12-25T12:26:40.831Z,23.39
2022-12-25T12:29:08.991Z,23.42
2022-12-25T12:31:42.474Z,23.50
2022-12-25T12:34:18.605Z,23.54
2022-12-25T12:36:45.038Z,23.52
2022-12-25T12:39:20.749Z,23.49
2022-12-25T12:41:48.059Z,23.47
2022-12-25T12:44:14.608Z,23.47
2022-12-25T12:46:53.062Z,23.47
2022-12-25T12:49:24.922Z,23.42
2022-12-25T12:52:02.155Z,23.42
2022-12-25T12:54:28.585Z,23.43
2022-12-25T12:57:01.864Z,23.42
2022-12-25T12:59:40.159Z,23.38
2022-12-25T13:02:13.457Z,23.36
2022-12-25T13:04:53.779Z,23.22
2022-12-25T13:07:32.369Z,23.20
2022-12-25T13:10:13.350Z,23.16
2022-12-25T13:12:39.788Z,23.09
2022-12-25T13:15:11.983Z,23.07
2022-12-25T13:17:38.452Z,23.04
2022-12-25T13:20:05.494Z,22.99
2022-12-25T13:22:35.614Z,23.05
2022-12-25T13:25:05.208Z,23.13
2022-12-25T13:27:32.684Z,23.25
2022-12-25T13:29:59.156Z,23.31
2022-12-25T13:32:30.052Z,23.35
2022-12-25T13:34:56.519Z,23.44
2022-12-25T13:37:24.420Z,23.64
2022-12-25T13:39:56.912Z,23.81
2022-12-25T13:42:26.700Z,23.84
2022-12-25T13:44:58.608Z,23.85
2022-12-25T13:47:37.783Z,23.90
2022-12-25T13:50:15.785Z,23.92
2022-12-25T13:52:42.440Z,23.91
2022-12-25T13:55:16.396Z,23.89
2022-12-25T13:57:50.384Z,23.91
2022-12-25T14:00:41.491Z,23.85
2022-12-25T14:03:08.010Z,23.75
2022-12-25T14:05:42.981Z,23.68
2022-12-25T14:08:14.786Z,23.61
2022-12-25T14:10:41.221Z,23.58
2022-12-25T14:13:11.163Z,23.56
2022-12-25T14:15:38.239Z,23.55
2022-12-25T14:18:04.668Z,23.53
2022-12-25T14:20:34.968Z,23.50
2022-12-25T14:23:01.395Z,23.45
2022-12-25T14:25:35.420Z,23.43
2022-12-25T14:28:05.326Z,23.41
2022-12-25T14:30:31.802Z,23.40
2022-12-25T14:32:58.508Z,23.43
2022-12-25T14:35:25.320Z,23.49
2022-12-25T14:37:56.811Z,23.55
2022-12-25T14:40:30.954Z,23.65
2022-12-25T14:42:58.056Z,23.73
2022-12-25T14:45:32.139Z,23.78
2022-12-25T14:48:04.161Z,23.76
2022-12-25T14:50:34.317Z,23.77
2022-12-25T14:53:00.851Z,23.55
2022-12-25T14:55:28.400Z,23.41
2022-12-25T14:58:00.087Z,23.46
2022-12-25T15:00:35.461Z,23.50
2022-12-25T15:03:03.064Z,23.40
2022-12-25T15:05:34.401Z,23.44
2022-12-25T15:08:21.403Z,23.43
2022-12-25T15:11:03.891Z,23.47
2022-12-25T15:13:30.860Z,23.46
2022-12-25T15:16:01.558Z,23.53
2022-12-25T15:18:31.679Z,23.56
2022-12-25T15:20:58.167Z,23.58
2022-12-25T15:23:25.626Z,23.64
2022-12-25T15:25:52.333Z,23.68
2022-12-25T15:28:18.920Z,23.63
2022-12-25T15:30:45.440Z,23.69
2022-12-25T15:33:14.510Z,23.71
2022-12-25T15:35:40.976Z,23.74
2022-12-25T15:38:07.470Z,23.76
2022-12-25T15:40:34.671Z,23.78
2022-12-25T15:43:10.732Z,23.82
2022-12-25T15:45:40.832Z,23.87
2022-12-25T15:48:07.289Z,24.02
2022-12-25T15:50:36.754Z,24.08
2022-12-25T15:53:03.369Z,24.09
2022-12-25T15:55:29.866Z,24.12
2022-12-25T15:57:56.336Z,23.28
2022-12-25T16:00:22.849Z,23.70
2022-12-25T16:02:49.883Z,23.90
2022-12-25T16:05:16.652Z,24.08
2022-12-25T16:07:43.115Z,24.20
2022-12-25T16:10:16.247Z,24.25
2022-12-25T16:12:43.051Z,24.33
2022-12-25T16:15:11.298Z,24.36
2022-12-25T16:17:37.752Z,24.38
2022-12-25T16:20:04.467Z,24.40
2022-12-25T16:22:31.851Z,24.39
2022-12-25T16:24:58.343Z,24.40
2022-12-25T16:27:25.251Z,24.42
2022-12-25T16:29:51.720Z,24.43
2022-12-25T16:32:18.453Z,24.41
2022-12-25T16:34:45.112Z,24.40
2022-12-25T16:37:11.572Z,24.40
2022-12-25T16:39:38.436Z,24.39
2022-12-25T16:42:05.104Z,24.39
2022-12-25T16:44:31.615Z,24.31
2022-12-25T16:46:58.297Z,24.32
2022-12-25T16:49:24.819Z,24.37
2022-12-25T16:51:51.315Z,24.39
2022-12-25T16:54:18.097Z,24.47
2022-12-25T16:56:44.555Z,24.61
2022-12-25T16:59:11.293Z,24.66
2022-12-25T17:02:24.536Z,24.74
2022-12-25T17:04:51.075Z,24.91
2022-12-25T17:07:17.744Z,24.89
2022-12-25T17:09:47.351Z,24.98
2022-12-25T17:12:13.767Z,25.01
2022-12-25T17:14:40.196Z,25.04
2022-12-25T17:17:06.615Z,25.10
2022-12-25T17:19:33.079Z,25.15
2022-12-25T17:21:59.754Z,25.17
2022-12-25T17:24:27.027Z,25.17
2022-12-25T17:26:53.472Z,25.24
2022-12-25T17:29:22.449Z,25.23
2022-12-25T17:31:49.414Z,25.16
2022-12-25T17:34:18.888Z,25.16
2022-12-25T17:36:45.307Z,25.22
2022-12-25T17:39:11.832Z,25.20
2022-12-25T17:41:38.318Z,25.28
2022-12-25T17:44:04.989Z,25.37
2022-12-25T17:46:31.634Z,25.43
2022-12-25T17:48:59.153Z,25.45
2022-12-25T17:51:26.085Z,25.45
2022-12-25T17:53:54.093Z,25.47
2022-12-25T17:56:20.975Z,25.46
2022-12-25T17:58:51.640Z,25.49
2022-12-25T18:01:18.339Z,25.46
2022-12-25T18:03:45.156Z,25.49
2022-12-25T18:06:14.320Z,25.40
2022-12-25T18:08:41.246Z,25.44
2022-12-25T18:11:09.992Z,25.52
2022-12-25T18:13:37.040Z,25.44
2022-12-25T18:16:04.470Z,25.42
2022-12-25T18:18:31.243Z,25.43
2022-12-25T18:20:57.719Z,25.47
2022-12-25T18:23:24.756Z,25.51
2022-12-25T18:25:51.436Z,25.52
2022-12-25T18:28:18.575Z,25.56
2022-12-25T18:30:45.140Z,25.56
2022-12-25T18:33:11.798Z,25.60
2022-12-25T18:35:39.249Z,25.65
2022-12-25T18:38:05.984Z,25.67
2022-12-25T18:40:32.537Z,25.67
2022-12-25T18:43:03.236Z,25.65
2022-12-25T18:45:30.498Z,25.57
2022-12-25T18:47:56.977Z,25.46
2022-12-25T18:50:23.465Z,25.41
2022-12-25T18:52:51.580Z,25.41
2022-12-25T18:55:18.658Z,25.48
2022-12-25T18:57:45.111Z,25.57
2022-12-25T19:00:11.684Z,25.53
2022-12-25T19:02:38.173Z,25.56
2022-12-25T19:05:05.663Z,25.54
2022-12-25T19:07:32.180Z,25.60
2022-12-25T19:09:58.660Z,25.62
2022-12-25T19:12:25.116Z,25.64
2022-12-25T19:14:51.719Z,25.65
2022-12-25T19:17:18.251Z,25.62
2022-12-25T19:19:44.873Z,25.64
2022-12-25T19:22:11.532Z,25.66
2022-12-25T19:24:38.017Z,25.62
2022-12-25T19:27:04.556Z,25.59
2022-12-25T19:29:31.388Z,25.59
2022-12-25T19:31:57.988Z,25.53
2022-12-25T19:34:24.562Z,25.47
2022-12-25T19:36:51.074Z,25.45
2022-12-25T19:39:17.530Z,25.38
2022-12-25T19:41:44.528Z,25.29
2022-12-25T19:44:11.369Z,25.30
2022-12-25T19:46:40.370Z,25.26
2022-12-25T19:49:07.720Z,25.25
2022-12-25T19:51:39.270Z,25.24
2022-12-25T19:54:05.949Z,25.22
2022-12-25T19:56:32.621Z,25.26
2022-12-25T19:58:59.289Z,25.20
2022-12-25T20:01:27.199Z,25.17
2022-12-25T20:03:54.027Z,25.15
2022-12-25T20:06:25.922Z,25.13
2022-12-25T20:08:57.264Z,25.15
2022-12-25T20:11:25.040Z,25.14
2022-12-25T20:13:51.587Z,25.15
2022-12-25T20:16:18.136Z,25.14
2022-12-25T20:18:44.611Z,25.14
2022-12-25T20:21:14.005Z,25.13
2022-12-25T20:23:41.606Z,25.11
2022-12-25T20:26:08.134Z,25.17
2022-12-25T20:28:35.193Z,25.19
2022-12-25T20:31:33.316Z,25.19
2022-12-25T20:34:04.021Z,25.15
2022-12-25T20:36:36.291Z,25.03
2022-12-25T20:39:04.018Z,25.02
2022-12-25T20:41:30.684Z,25.01
2022-12-25T20:43:57.287Z,24.91
2022-12-25T20:46:24.787Z,24.96
2022-12-25T20:48:52.749Z,25.04
2022-12-25T20:51:21.412Z,24.97
2022-12-25T20:53:47.977Z,24.99
2022-12-25T20:56:15.673Z,25.03
2022-12-25T20:58:42.180Z,25.09
2022-12-25T21:01:13.614Z,25.08
2022-12-25T21:03:40.473Z,25.08
2022-12-25T21:06:07.360Z,25.07
2022-12-25T21:08:33.967Z,24.87
2022-12-25T21:11:00.876Z,24.93
2022-12-25T21:13:29.379Z,25.03
2022-12-25T21:15:56.363Z,25.05
2022-12-25T21:18:23.547Z,25.07
2022-12-25T21:20:52.172Z,25.08
2022-12-25T21:23:18.812Z,25.09
2022-12-25T21:25:45.724Z,25.09
2022-12-25T21:28:12.470Z,25.11
2022-12-25T21:30:39.004Z,25.12
2022-12-25T21:33:23.954Z,25.11
2022-12-25T21:35:50.443Z,25.11
2022-12-25T21:38:17.446Z,25.08
2022-12-25T21:40:43.933Z,25.09
2022-12-25T21:43:11.550Z,25.08
2022-12-25T21:45:38.022Z,25.07
2022-12-25T21:48:04.672Z,25.05
2022-12-25T21:50:49.654Z,25.03
2022-12-25T21:53:16.785Z,24.98
2022-12-25T21:55:43.277Z,24.97
2022-12-25T21:58:09.739Z,24.95
2022-12-25T22:00:36.194Z,24.95
2022-12-25T22:03:02.801Z,24.93
2022-12-25T22:05:48.011Z,24.95
2022-12-25T22:08:14.536Z,24.87
2022-12-25T22:10:41.018Z,24.88
2022-12-25T22:13:27.658Z,24.90
2022-12-25T22:16:20.616Z,24.89
2022-12-25T22:19:05.756Z,24.87
2022-12-25T22:21:32.233Z,24.87
2022-12-25T22:23:58.711Z,24.86
2022-12-25T22:26:25.170Z,24.85
2022-12-25T22:28:51.630Z,24.89
2022-12-25T22:31:18.156Z,24.91
2022-12-25T22:33:44.643Z,24.91
2022-12-25T22:36:11.104Z,24.89
2022-12-25T22:38:37.575Z,24.90
2022-12-25T22:41:07.212Z,24.82
2022-12-25T22:44:06.765Z,24.74
2022-12-25T22:46:20.143Z,24.77
2022-12-25T22:48:46.615Z,24.73
2022-12-25T22:51:13.063Z,24.72
2022-12-25T22:53:39.529Z,24.70
2022-12-25T22:56:08.211Z,24.66
2022-12-25T22:58:34.718Z,24.64
2022-12-25T23:01:01.348Z,24.64
2022-12-25T23:03:27.899Z,24.61
2022-12-25T23:05:55.577Z,24.54
2022-12-25T23:08:22.931Z,24.52
2022-12-25T23:10:49.412Z,24.55
2022-12-25T23:13:34.764Z,24.54
2022-12-25T23:16:01.282Z,24.55
2022-12-25T23:18:46.162Z,24.56
2022-12-25T23:21:35.093Z,24.54
2022-12-25T23:24:40.345Z,24.55
2022-12-25T23:27:06.813Z,24.53
2022-12-25T23:29:36.026Z,24.52
2022-12-25T23:32:10.219Z,24.52
2022-12-25T23:34:37.421Z,24.50
2022-12-25T23:37:04.012Z,24.48
2022-12-25T23:39:30.624Z,24.45
2022-12-25T23:41:57.485Z,24.40
2022-12-25T23:44:26.301Z,24.42
2022-12-25T23:46:53.706Z,24.43
2022-12-25T23:49:21.431Z,24.42
2022-12-25T23:51:47.901Z,24.41
2022-12-25T23:54:19.357Z,24.42
2022-12-25T23:56:45.811Z,24.42
2022-12-25T23:59:12.738Z,24.39
